Time;durP1;ratioP1;P1;durP2;ratioP2;P2;SDS_P1;SDS_P2;PMS_P1;PMS_P2;Temp;Humidity;BMP_temperature;BMP_pressure;BME280_temperature;BME280_humidity;BME280_pressure;Samples;Min_cycle;Max_cycle;Signal;HPM_P1;HPM_P2
2023/11/10 00:00:14;;;;;;;1.65;1.42;;;;;;;10.26;74.07;98997.16;5056278;28;20148;-72
2023/11/10 00:02:44;;;;;;;1.15;0.90;;;;;;;10.40;74.01;99005.50;5056510;28;20045;-73
2023/11/10 00:05:13;;;;;;;0.52;0.52;;;;;;;10.48;73.64;99013.06;5056101;28;20083;-72
2023/11/10 00:07:42;;;;;;;2.60;1.60;;;;;;;10.49;73.13;98990.09;5056658;28;20038;-73
2023/11/10 00:10:11;;;;;;;6.78;1.80;;;;;;;10.44;73.38;98996.94;5055902;28;20041;-72
2023/11/10 00:12:40;;;;;;;1.08;0.95;;;;;;;10.43;73.68;98994.41;5055095;28;20037;-71
2023/11/10 00:15:11;;;;;;;0.70;0.70;;;;;;;10.38;73.98;99002.13;5056035;28;20503;-71
2023/11/10 00:17:41;;;;;;;1.60;1.50;;;;;;;10.36;73.64;99003.84;5056206;28;20080;-73
2023/11/10 00:20:11;;;;;;;0.70;0.70;;;;;;;10.36;73.87;98998.75;5055833;28;20049;-71
2023/11/10 00:22:41;;;;;;;0.50;0.50;;;;;;;10.23;74.32;98992.09;5055814;28;20049;-72
2023/11/10 00:25:11;;;;;;;2.83;1.75;;;;;;;10.23;74.37;98992.09;5055726;28;20060;-70
2023/11/10 00:27:40;;;;;;;0.73;0.73;;;;;;;10.14;74.85;98993.88;5055714;28;20045;-71
2023/11/10 00:30:12;;;;;;;6.50;6.15;;;;;;;10.14;74.83;98992.19;5055907;28;20063;-71
2023/11/10 00:32:42;;;;;;;6.53;2.05;;;;;;;10.08;75.05;98987.09;5055633;28;20107;-69
2023/11/10 00:35:11;;;;;;;0.87;0.83;;;;;;;10.10;75.46;98990.50;5055427;28;20037;-72
2023/11/10 00:37:40;;;;;;;0.75;0.75;;;;;;;10.18;75.05;98990.44;5054737;28;20037;-72
2023/11/10 00:40:10;;;;;;;1.35;1.00;;;;;;;10.19;75.21;98990.44;5055536;28;20090;-72
2023/11/10 00:42:38;;;;;;;;;;;;;;;10.22;75.05;98989.56;5054712;28;20056;-70
2023/11/10 00:45:08;;;;;;;0.50;0.50;;;;;;;10.19;74.97;98995.53;5055381;28;19928;-70
2023/11/10 00:47:39;;;;;;;2.72;1.15;;;;;;;10.13;75.00;98985.38;5054004;28;20059;-71
2023/11/10 00:50:10;;;;;;;1.30;0.90;;;;;;;10.11;75.23;98979.44;5055580;28;20131;-71
2023/11/10 00:52:39;;;;;;;1.25;1.15;;;;;;;10.09;75.09;98994.75;5055163;28;20056;-72
2023/11/10 00:55:10;;;;;;;1.65;1.23;;;;;;;10.12;75.13;98978.63;5054006;28;20410;-72
2023/11/10 00:57:39;;;;;;;0.73;0.70;;;;;;;10.09;75.39;98983.69;5053986;28;20048;-70
2023/11/10 01:00:11;;;;;;;0.68;0.63;;;;;;;10.10;75.10;98981.13;5054010;28;20041;-70
2023/11/10 01:02:42;;;;;;;0.82;0.82;;;;;;;10.07;75.40;98976.09;5053904;28;20060;-73
2023/11/10 01:05:13;;;;;;;1.35;1.00;;;;;;;10.02;75.63;98976.97;5054143;28;20465;-72
2023/11/10 01:07:41;;;;;;;0.50;0.50;;;;;;;9.92;76.23;98953.28;5054856;28;20449;-72
2023/11/10 01:10:11;;;;;;;0.73;0.73;;;;;;;9.97;76.19;98955.78;5055050;28;20059;-72
2023/11/10 01:12:39;;;;;;;;;;;;;;;9.98;75.91;98960.03;5055569;28;20053;-72
2023/11/10 01:15:11;;;;;;;0.68;0.63;;;;;;;9.91;75.88;98928.63;5053618;28;20294;-71
2023/11/10 01:17:41;;;;;;;1.35;1.25;;;;;;;10.01;75.12;98947.22;5054900;28;20122;-70
2023/11/10 01:20:12;;;;;;;1.70;1.60;;;;;;;9.92;75.15;98926.94;5053490;28;20147;-70
2023/11/10 01:22:44;;;;;;;0.30;0.30;;;;;;;10.04;75.58;98949.75;5054796;28;20049;-73
2023/11/10 01:25:13;;;;;;;;;;;;;;;10.04;75.44;98962.50;5055354;28;20045;-72
2023/11/10 01:27:44;;;;;;;1.65;1.55;;;;;;;10.01;75.42;98949.78;5053747;28;19947;-73
2023/11/10 01:30:13;;;;;;;0.43;0.43;;;;;;;9.99;75.78;98943.84;5053173;28;20056;-68
2023/11/10 01:32:44;;;;;;;0.77;0.73;;;;;;;10.00;75.08;98951.50;5054476;28;20052;-71
2023/11/10 01:35:13;;;;;;;6.95;1.38;;;;;;;9.95;75.79;98944.75;5053558;28;20049;-72
2023/11/10 01:37:42;;;;;;;0.63;0.63;;;;;;;9.85;75.94;98928.72;5053214;28;20064;-71
2023/11/10 01:40:11;;;;;;;0.60;0.60;;;;;;;9.96;75.86;98948.97;5053073;28;20304;-72
2023/11/10 01:42:40;;;;;;;3.78;2.30;;;;;;;9.95;75.40;98937.97;5054565;28;20403;-70
2023/11/10 01:45:10;;;;;;;2.00;0.87;;;;;;;9.90;75.77;98926.13;5054559;28;20125;-69
2023/11/10 01:47:40;;;;;;;0.75;0.75;;;;;;;9.90;75.21;98937.16;5053372;28;20056;-71
2023/11/10 01:50:12;;;;;;;1.10;1.02;;;;;;;9.72;75.91;98905.91;5053101;28;20049;-73
2023/11/10 01:52:42;;;;;;;1.10;1.00;;;;;;;9.78;76.35;98926.25;5053972;28;20135;-71
2023/11/10 01:55:15;;;;;;;2.45;1.52;;;;;;;9.75;76.32;98936.44;5052877;28;20049;-71
2023/11/10 01:57:46;;;;;;;0.93;0.82;;;;;;;9.75;76.71;98931.34;5053977;28;20041;-69
2023/11/10 02:00:19;;;;;;;0.90;0.90;;;;;;;9.78;75.86;98933.88;5053088;28;20045;-72
2023/11/10 02:02:48;;;;;;;2.95;1.45;;;;;;;9.74;75.97;98916.94;5054301;28;20537;-73
2023/11/10 02:05:18;;;;;;;0.80;0.80;;;;;;;9.74;76.73;98929.69;5053881;28;20132;-73
2023/11/10 02:07:47;;;;;;;1.63;1.48;;;;;;;9.76;76.47;98930.50;5053732;28;20128;-71
2023/11/10 02:10:16;;;;;;;0.45;0.45;;;;;;;9.77;76.10;98927.94;5019694;28;20083;-71
2023/11/10 02:12:57;;;;;;;1.08;0.73;;;;;;;9.74;76.61;98927.13;5052649;28;20041;-73
2023/11/10 02:15:27;;;;;;;2.72;1.77;;;;;;;9.72;76.34;98928.84;5052591;28;20048;-71
2023/11/10 02:17:57;;;;;;;1.17;1.08;;;;;;;9.68;76.45;98925.47;5052530;28;20061;-72
2023/11/10 02:20:27;;;;;;;0.87;0.87;;;;;;;9.60;76.75;98916.25;5051945;28;20045;-71
2023/11/10 02:22:56;;;;;;;1.38;0.52;;;;;;;9.54;76.75;98911.19;5052474;28;20099;-73
2023/11/10 02:25:27;;;;;;;7.63;1.75;;;;;;;9.59;76.99;98929.81;5053549;28;20065;-72
2023/11/10 02:27:55;;;;;;;0.88;0.85;;;;;;;9.50;76.68;98924.81;5053790;28;20135;-71
2023/11/10 02:30:24;;;;;;;0.60;0.60;;;;;;;9.44;77.05;98920.59;5052359;28;20094;-71
2023/11/10 02:32:53;;;;;;;1.27;1.17;;;;;;;9.39;76.96;98923.19;5053349;28;20048;-70
2023/11/10 02:35:22;;;;;;;1.10;1.03;;;;;;;9.33;77.49;98923.22;5052232;28;20049;-72
2023/11/10 02:37:51;;;;;;;1.33;1.23;;;;;;;9.33;77.40;98923.22;5035612;28;20495;-71
2023/11/10 02:40:19;;;;;;;0.67;0.67;;;;;;;9.34;77.39;98919.84;5052167;28;20033;-71
2023/11/10 02:42:49;;;;;;;0.80;0.80;;;;;;;9.13;78.20;98884.38;5053578;28;20143;-72
2023/11/10 02:45:19;;;;;;;1.67;1.38;;;;;;;9.35;78.17;98915.59;5053705;28;20409;-72
2023/11/10 02:47:47;;;;;;;1.55;1.40;;;;;;;9.41;77.81;98903.66;5053272;28;20037;-74
2023/11/10 02:50:16;;;;;;;0.30;0.30;;;;;;;9.13;77.87;98860.63;5052292;28;20041;-71
2023/11/10 02:52:49;;;;;;;0.75;0.75;;;;;;;9.47;77.93;98905.31;5051816;28;20052;-71
2023/11/10 02:55:17;;;;;;;0.57;0.57;;;;;;;9.52;77.44;98898.47;5052086;28;20518;-70
2023/11/10 02:57:46;;;;;;;2.30;1.47;;;;;;;9.57;77.51;98900.97;5053508;28;20041;-72
2023/11/10 03:00:17;;;;;;;0.40;0.40;;;;;;;9.63;77.09;98906.84;5053291;28;20091;-70
2023/11/10 03:02:46;;;;;;;2.38;1.33;;;;;;;9.61;77.13;98903.47;5053432;28;20076;-71
2023/11/10 03:05:15;;;;;;;1.10;1.00;;;;;;;9.65;77.25;98914.47;5051907;28;20040;-73
2023/11/10 03:07:44;;;;;;;1.25;0.95;;;;;;;9.64;76.70;98912.78;5053138;28;20041;-72
2023/11/10 03:10:14;;;;;;;1.23;1.13;;;;;;;9.69;76.75;98905.97;5052117;28;20045;-72
2023/11/10 03:12:44;;;;;;;1.55;1.45;;;;;;;9.47;77.04;98871.34;5053332;28;20094;-71
2023/11/10 03:15:13;;;;;;;0.40;0.40;;;;;;;9.56;77.14;98879.75;5053328;28;20045;-72
2023/11/10 03:17:43;;;;;;;0.70;0.70;;;;;;;9.70;76.43;98892.34;5053127;28;20392;-72
2023/11/10 03:20:12;;;;;;;0.50;0.50;;;;;;;9.68;76.65;98904.25;5051840;28;20053;-71
2023/11/10 03:22:41;;;;;;;0.65;0.65;;;;;;;9.61;77.46;98898.38;5051769;28;20405;-71
2023/11/10 03:25:10;;;;;;;21.30;2.13;;;;;;;9.54;77.24;98878.06;5053009;28;20126;-72
2023/11/10 03:27:40;;;;;;;0.52;0.50;;;;;;;9.67;77.04;98897.50;5053032;28;20441;-71
2023/11/10 03:30:09;;;;;;;;;;;;;;;9.69;77.38;98903.41;5051987;28;20124;-73
2023/11/10 03:32:38;;;;;;;2.63;1.05;;;;;;;9.55;77.04;98884.88;5055362;28;19970;-71
2023/11/10 03:35:11;;;;;;;0.73;0.73;;;;;;;9.67;77.34;98905.13;5056726;28;20045;-72
2023/11/10 03:37:41;;;;;;;1.25;0.90;;;;;;;9.65;77.79;98894.09;5055455;28;20037;-72
2023/11/10 03:40:10;;;;;;;1.08;0.93;;;;;;;9.63;77.62;98895.81;5056673;28;20069;-71
2023/11/10 03:42:39;;;;;;;0.40;0.40;;;;;;;9.51;77.44;98870.44;5055407;28;20045;-72
2023/11/10 03:45:09;;;;;;;1.60;1.50;;;;;;;9.62;77.70;98883.94;5055620;28;20115;-73
2023/11/10 03:47:38;;;;;;;1.00;0.90;;;;;;;9.51;77.50;98866.22;5056572;28;20103;-73
2023/11/10 03:50:08;;;;;;;1.02;0.93;;;;;;;9.57;78.09;98871.25;5056545;28;20116;-73
2023/11/10 03:52:38;;;;;;;;;;;;;;;9.57;77.89;98861.06;5056701;28;20107;-72
2023/11/10 03:55:07;;;;;;;1.17;0.90;;;;;;;9.45;78.28;98836.53;5056445;28;19920;-74
2023/11/10 03:57:36;;;;;;;0.70;0.70;;;;;;;9.41;78.46;98834.91;5056338;28;20045;-72
2023/11/10 04:00:06;;;;;;;1.07;0.70;;;;;;;9.56;78.13;98848.34;5056482;28;20041;-73
2023/11/10 04:02:35;;;;;;;0.57;0.57;;;;;;;9.57;77.77;98850.88;5056679;28;20341;-71
2023/11/10 04:05:04;;;;;;;0.50;0.50;;;;;;;9.64;77.46;98838.91;5056456;28;20138;-71
2023/11/10 04:07:33;;;;;;;0.95;0.75;;;;;;;9.67;77.25;98836.34;5056572;28;20399;-72
2023/11/10 04:10:05;;;;;;;0.50;0.50;;;;;;;9.69;77.36;98844.81;5056356;28;20041;-72
2023/11/10 04:12:35;;;;;;;0.68;0.68;;;;;;;9.72;76.55;98835.41;5056597;28;20072;-71
2023/11/10 04:15:05;;;;;;;1.92;1.00;;;;;;;9.71;76.65;98815.06;5056332;28;20049;-71
2023/11/10 04:17:34;;;;;;;;;;;;;;;9.74;76.30;98828.59;5056669;28;20448;-72
2023/11/10 04:20:03;;;;;;;1.40;1.30;;;;;;;9.77;76.27;98827.72;5056379;28;19956;-71
2023/11/10 04:22:35;;;;;;;1.75;1.65;;;;;;;9.81;76.02;98825.09;5056395;28;20541;-71
2023/11/10 04:25:06;;;;;;;1.15;1.02;;;;;;;9.78;75.97;98814.97;5056131;28;20449;-72
2023/11/10 04:27:35;;;;;;;0.40;0.40;;;;;;;9.85;75.75;98820.84;5056498;28;20056;-71
2023/11/10 04:30:04;;;;;;;0.52;0.52;;;;;;;9.86;76.13;98822.53;5055751;28;20099;-72
2023/11/10 04:32:33;;;;;;;0.75;0.75;;;;;;;9.85;75.64;98820.84;5056064;28;20468;-68
2023/11/10 04:35:15;;;;;;;0.50;0.50;;;;;;;9.78;76.02;98832.81;5055731;28;20072;-73
2023/11/10 04:37:44;;;;;;;2.00;1.80;;;;;;;9.73;76.58;98836.25;5055604;28;20037;-71
2023/11/10 04:40:15;;;;;;;1.65;1.45;;;;;;;9.70;76.73;98836.28;5055598;28;20049;-72
2023/11/10 04:42:44;;;;;;;1.67;1.58;;;;;;;9.70;76.98;98837.13;5055501;28;20118;-72
2023/11/10 04:45:13;;;;;;;0.80;0.80;;;;;;;9.66;76.75;98829.53;5055428;28;20048;-72
2023/11/10 04:47:42;;;;;;;1.70;1.17;;;;;;;9.69;76.71;98837.16;5055439;28;20064;-72
2023/11/10 04:50:12;;;;;;;0.82;0.63;;;;;;;9.68;76.21;98827.81;5055724;28;20345;-73
2023/11/10 04:52:42;;;;;;;0.55;0.55;;;;;;;9.66;76.71;98824.44;5055313;28;20124;-73
2023/11/10 04:55:11;;;;;;;0.43;0.43;;;;;;;9.72;76.64;98824.38;5055966;28;20132;-71
2023/11/10 04:57:41;;;;;;;0.60;0.60;;;;;;;9.70;76.92;98826.09;5055231;28;20033;-71
2023/11/10 05:00:13;;;;;;;0.73;0.73;;;;;;;9.66;76.87;98814.25;5055396;28;20069;-73
2023/11/10 05:02:44;;;;;;;0.93;0.93;;;;;;;9.68;76.30;98813.38;5055556;28;20395;-72
2023/11/10 05:05:14;;;;;;;0.50;0.50;;;;;;;9.70;76.32;98815.91;5055207;28;20041;-72
2023/11/10 05:07:43;;;;;;;0.45;0.45;;;;;;;9.65;76.21;98805.78;5054974;28;20045;-71
2023/11/10 05:10:12;;;;;;;0.30;0.30;;;;;;;9.70;76.69;98805.72;5055166;28;20116;-72
2023/11/10 05:12:44;;;;;;;0.30;0.30;;;;;;;9.67;76.78;98800.69;5055709;28;20049;-71
2023/11/10 05:15:14;;;;;;;0.45;0.45;;;;;;;9.63;76.22;98799.00;5055156;28;20098;-71
2023/11/10 05:17:44;;;;;;;0.40;0.40;;;;;;;9.62;76.76;98807.53;5054785;28;20049;-71
2023/11/10 05:20:15;;;;;;;0.45;0.45;;;;;;;9.62;76.68;98807.53;5054952;28;20077;-73
2023/11/10 05:22:44;;;;;;;0.60;0.60;;;;;;;9.53;77.19;98792.31;5055047;28;20041;-71
2023/11/10 05:25:13;;;;;;;1.27;1.13;;;;;;;9.57;76.82;98794.00;5055195;28;20037;-73
2023/11/10 05:27:43;;;;;;;0.98;0.90;;;;;;;9.52;76.72;98798.28;5055049;28;20123;-71
2023/11/10 05:30:13;;;;;;;1.65;1.20;;;;;;;9.44;77.22;98796.66;5054629;28;20140;-72
2023/11/10 05:32:42;;;;;;;2.40;1.05;;;;;;;9.39;76.76;98800.97;5054905;28;20399;-72
2023/11/10 05:35:11;;;;;;;1.02;0.95;;;;;;;9.35;77.75;98804.41;5054932;28;20072;-72
2023/11/10 05:37:40;;;;;;;1.73;0.90;;;;;;;9.21;77.30;98775.66;5054705;28;20049;-71
2023/11/10 05:40:10;;;;;;;0.77;0.77;;;;;;;9.20;77.06;98786.72;5054803;28;20070;-73
2023/11/10 05:42:40;;;;;;;0.45;0.45;;;;;;;9.24;77.53;98798.56;5054785;28;20057;-72
2023/11/10 05:45:11;;;;;;;0.40;0.40;;;;;;;9.27;78.05;98792.59;5054922;28;20037;-71
2023/11/10 05:47:40;;;;;;;0.40;0.40;;;;;;;9.27;77.30;98795.16;5054588;28;20072;-70
2023/11/10 05:50:10;;;;;;;1.13;1.07;;;;;;;9.08;77.76;98763.94;5054265;28;20052;-73
2023/11/10 05:52:38;;;;;;;;;;;;;;;9.33;77.87;98801.00;5054428;28;20053;-73
2023/11/10 05:55:08;;;;;;;1.00;0.95;;;;;;;9.25;77.56;98777.34;5053851;28;19925;-73
2023/11/10 05:57:37;;;;;;;0.75;0.75;;;;;;;9.45;77.45;98798.34;5053941;28;20041;-70
2023/11/10 06:00:07;;;;;;;1.35;1.25;;;;;;;9.53;76.88;98795.72;5054047;28;20041;-71
2023/11/10 06:02:41;;;;;;;0.77;0.77;;;;;;;9.59;77.18;98802.47;5054408;28;20072;-71
2023/11/10 06:05:12;;;;;;;0.55;0.55;;;;;;;9.49;76.84;98775.41;5054105;28;20041;-71
2023/11/10 06:07:41;;;;;;;;;;;;;;;9.68;76.11;98807.44;5054378;28;20124;-71
2023/11/10 06:10:12;;;;;;;2.00;1.83;;;;;;;9.72;75.91;98809.09;5054031;28;20286;-71
2023/11/10 06:12:42;;;;;;;0.68;0.63;;;;;;;9.74;75.47;98812.50;5053960;28;20048;-70
2023/11/10 06:15:12;;;;;;;0.47;0.47;;;;;;;9.76;75.80;98811.59;5054103;28;20067;-71
2023/11/10 06:17:44;;;;;;;0.40;0.40;;;;;;;9.82;75.35;98815.78;5053677;28;20045;-73
2023/11/10 06:20:13;;;;;;;0.25;0.25;;;;;;;9.70;75.51;98801.47;5053818;28;20045;-71
2023/11/10 06:22:42;;;;;;;1.20;1.10;;;;;;;9.88;75.29;98824.22;5053740;28;20124;-72
2023/11/10 06:25:11;;;;;;;0.98;0.95;;;;;;;9.81;74.88;98809.00;5052852;28;20044;-72
2023/11/10 06:27:40;;;;;;;0.82;0.82;;;;;;;9.89;74.88;98833.53;5053684;28;20048;-71
2023/11/10 06:30:10;;;;;;;0.40;0.40;;;;;;;9.84;75.32;98834.44;5036113;28;20040;-71
2023/11/10 06:32:39;;;;;;;0.57;0.57;;;;;;;9.88;75.39;98836.09;5034329;28;20045;-73
2023/11/10 06:35:10;;;;;;;0.55;0.55;;;;;;;9.83;75.19;98815.78;5033570;28;20526;-72
2023/11/10 06:37:39;;;;;;;0.80;0.80;;;;;;;9.63;76.02;98778.63;5033655;28;20077;-72
2023/11/10 06:40:09;;;;;;;0.38;0.38;;;;;;;9.86;76.21;98832.72;5033516;28;20092;-71
2023/11/10 06:42:38;;;;;;;0.60;0.60;;;;;;;9.85;76.09;98833.56;5033626;28;20049;-72
2023/11/10 06:45:08;;;;;;;0.40;0.40;;;;;;;9.76;75.84;98815.84;5033545;28;20041;-72
2023/11/10 06:47:37;;;;;;;0.52;0.52;;;;;;;9.91;75.53;98843.72;5033514;28;20057;-72
2023/11/10 06:50:07;;;;;;;1.73;1.13;;;;;;;9.79;75.05;98826.84;5033510;28;20095;-71
2023/11/10 06:52:38;;;;;;;4.07;1.13;;;;;;;9.98;75.04;98858.91;5045224;28;20049;-74
2023/11/10 06:55:13;;;;;;;1.02;0.95;;;;;;;9.97;75.27;98854.69;5033764;28;20111;-69
2023/11/10 06:57:44;;;;;;;0.47;0.47;;;;;;;9.96;75.47;98857.22;5036479;28;20044;-71
2023/11/10 07:00:13;;;;;;;4.80;2.47;;;;;;;9.79;75.13;98831.13;5052951;28;20512;-71
2023/11/10 07:02:42;;;;;;;0.98;0.90;;;;;;;9.90;74.92;98852.22;5052084;28;20491;-70
2023/11/10 07:05:11;;;;;;;0.68;0.68;;;;;;;9.91;75.09;98856.47;5033970;28;20048;-73
2023/11/10 07:07:41;;;;;;;0.82;0.82;;;;;;;9.86;75.52;98858.22;5037477;28;20514;-71
2023/11/10 07:10:10;;;;;;;0.88;0.80;;;;;;;9.88;75.87;98861.59;5037592;28;20076;-71
2023/11/10 07:12:39;;;;;;;0.40;0.40;;;;;;;9.85;76.29;98866.72;5037723;28;20045;-70
2023/11/10 07:15:09;;;;;;;3.47;1.20;;;;;;;9.78;76.96;98870.19;5055532;28;20073;-69
2023/11/10 07:17:38;;;;;;;0.60;0.60;;;;;;;9.72;77.86;98860.03;5057428;28;20430;-69
2023/11/10 07:20:09;;;;;;;0.30;0.30;;;;;;;9.68;78.68;98863.50;5057391;28;20056;-71
2023/11/10 07:22:39;;;;;;;0.52;0.52;;;;;;;9.63;79.30;98865.25;5057055;28;20041;-69
2023/11/10 07:25:10;;;;;;;1.30;1.05;;;;;;;9.59;79.38;98863.59;5036897;28;20459;-70
2023/11/10 07:27:38;;;;;;;2.83;1.05;;;;;;;9.62;80.00;98866.13;5037676;28;20065;-70
2023/11/10 07:30:08;;;;;;;0.65;0.65;;;;;;;9.58;80.57;98857.66;5036953;28;20057;-70
2023/11/10 07:32:37;;;;;;;1.00;0.60;;;;;;;9.20;80.56;98811.34;5036828;28;20046;-69
2023/11/10 07:35:06;;;;;;;0.63;0.63;;;;;;;9.52;81.06;98867.06;5055131;28;20044;-71
2023/11/10 07:37:36;;;;;;;0.80;0.80;;;;;;;9.44;81.96;98867.97;5053308;28;20061;-71
2023/11/10 07:40:06;;;;;;;3.05;1.52;;;;;;;9.40;81.83;98876.50;5043170;28;20045;-71
2023/11/10 07:42:37;;;;;;;0.60;0.60;;;;;;;9.34;82.41;98866.38;5049488;28;20040;-69
2023/11/10 07:45:08;;;;;;;2.83;2.55;;;;;;;9.26;83.28;98860.47;5056627;28;20110;-71
2023/11/10 07:47:36;;;;;;;0.55;0.55;;;;;;;9.32;83.71;98869.78;5054327;28;20045;-71
2023/11/10 07:50:07;;;;;;;1.75;1.13;;;;;;;9.31;83.06;98871.47;5046455;28;20033;-70
2023/11/10 07:52:37;;;;;;;2.38;1.38;;;;;;;9.32;83.15;98865.53;5036303;28;20058;-70
2023/11/10 07:55:07;;;;;;;0.80;0.80;;;;;;;9.28;83.92;98863.88;5036474;28;20052;-70
2023/11/10 07:57:37;;;;;;;1.35;1.25;;;;;;;9.34;83.67;98862.97;5037847;28;20042;-70
2023/11/10 08:00:07;;;;;;;0.55;0.55;;;;;;;9.39;83.62;98851.91;5056436;28;20380;-70
2023/11/10 08:02:40;;;;;;;0.40;0.40;;;;;;;9.41;83.72;98860.34;5056639;28;20080;-70
2023/11/10 08:05:09;;;;;;;1.77;1.40;;;;;;;9.34;84.19;98847.69;5056347;28;20123;-70
2023/11/10 08:07:38;;;;;;;1.50;1.20;;;;;;;9.50;84.47;98858.59;5048714;28;20475;-71
2023/11/10 08:10:08;;;;;;;1.17;0.97;;;;;;;9.50;84.34;98848.41;5036224;28;20540;-69
2023/11/10 08:12:39;;;;;;;1.42;1.20;;;;;;;9.55;84.22;98847.47;5036565;28;20037;-70
2023/11/10 08:15:09;;;;;;;0.82;0.70;;;;;;;9.53;84.77;98844.09;5036385;28;20053;-70
2023/11/10 08:17:38;;;;;;;1.05;0.95;;;;;;;9.53;84.72;98838.16;5049424;28;20166;-70
2023/11/10 08:20:10;;;;;;;1.70;1.60;;;;;;;9.55;85.03;98851.75;5056021;28;20473;-72
2023/11/10 08:22:39;;;;;;;12.82;7.88;;;;;;;9.39;85.14;98831.53;5055749;28;20285;-69
2023/11/10 08:25:11;;;;;;;2.65;2.25;;;;;;;9.50;84.96;98853.50;5055746;28;20041;-69
2023/11/10 08:27:42;;;;;;;2.22;1.85;;;;;;;9.54;84.88;98852.59;5053826;28;20053;-70
2023/11/10 08:30:12;;;;;;;1.50;1.40;;;;;;;9.51;85.36;98855.16;5055789;28;20399;-69
2023/11/10 08:32:42;;;;;;;2.03;1.92;;;;;;;9.46;85.16;98857.75;5055156;28;20056;-69
2023/11/10 08:35:11;;;;;;;;;;;;;;;9.42;85.36;98851.03;5053314;28;20039;-70
2023/11/10 08:37:39;;;;;;;1.52;1.42;;;;;;;9.35;86.46;98855.34;5054435;28;19966;-70
2023/11/10 08:40:09;;;;;;;1.00;0.95;;;;;;;9.29;85.86;98854.53;5045091;28;20050;-69
2023/11/10 08:42:41;;;;;;;0.43;0.43;;;;;;;9.27;86.04;98846.91;5036021;28;20053;-69
2023/11/10 08:45:14;;;;;;;0.60;0.60;;;;;;;9.30;87.07;98841.81;5046112;28;20049;-68
2023/11/10 08:47:44;;;;;;;1.80;1.30;;;;;;;9.34;86.55;98848.53;5047655;28;20049;-70
2023/11/10 08:50:13;;;;;;;1.25;1.15;;;;;;;9.36;87.31;98834.09;5035883;28;20041;-69
2023/11/10 08:52:46;;;;;;;0.60;0.60;;;;;;;9.40;86.97;98838.31;5035267;28;20132;-70
2023/11/10 08:55:20;;;;;;;1.95;1.75;;;;;;;9.42;87.05;98841.69;5046400;28;20372;-70
2023/11/10 08:57:50;;;;;;;2.58;1.10;;;;;;;9.26;87.60;98819.75;5038005;28;20041;-69
2023/11/10 09:00:21;;;;;;;1.38;0.95;;;;;;;9.30;87.71;98846.91;5046923;28;20033;-71
2023/11/10 09:02:52;;;;;;;0.40;0.40;;;;;;;9.25;87.25;98861.38;5055502;28;20052;-70
2023/11/10 09:05:22;;;;;;;0.60;0.60;;;;;;;9.20;87.44;98878.38;5054071;28;20049;-68
2023/11/10 09:07:50;;;;;;;1.63;1.45;;;;;;;9.12;87.10;98882.66;5055276;28;20049;-68
2023/11/10 09:10:19;;;;;;;1.55;1.42;;;;;;;9.13;88.20;98842.81;5051153;28;20045;-69
2023/11/10 09:12:48;;;;;;;1.08;1.02;;;;;;;9.14;87.81;98830.03;5054030;28;20069;-68
2023/11/10 09:15:18;;;;;;;1.58;1.25;;;;;;;9.05;88.14;98825.03;5055596;28;20379;-70
2023/11/10 09:17:49;;;;;;;0.68;0.68;;;;;;;9.22;88.17;98828.28;5055019;28;20041;-69
2023/11/10 09:20:18;;;;;;;1.50;1.40;;;;;;;9.24;88.12;98829.13;5052635;28;20049;-70
2023/11/10 09:22:49;;;;;;;0.40;0.40;;;;;;;9.25;88.09;98827.41;5054003;28;20095;-70
2023/11/10 09:25:20;;;;;;;1.73;0.68;;;;;;;9.23;88.31;98827.44;5055239;28;20045;-70
2023/11/10 09:27:49;;;;;;;1.27;1.17;;;;;;;9.28;87.60;98818.06;5053535;28;20136;-70
2023/11/10 09:30:18;;;;;;;0.60;0.60;;;;;;;9.30;87.89;98816.34;5053607;28;20049;-70
2023/11/10 09:32:49;;;;;;;;;;;;;;;9.32;87.66;98816.31;5055275;28;20048;-70
2023/11/10 09:35:17;;;;;;;0.20;0.20;;;;;;;9.15;88.20;98791.03;5054679;28;20011;-71
2023/11/10 09:37:46;;;;;;;0.68;0.68;;;;;;;9.25;88.16;98807.03;5053173;28;20048;-70
2023/11/10 09:40:19;;;;;;;0.63;0.63;;;;;;;9.25;87.90;98792.63;5054100;28;20044;-70
2023/11/10 09:42:48;;;;;;;1.60;1.50;;;;;;;9.21;88.04;98793.50;5054428;28;20127;-69
2023/11/10 09:45:18;;;;;;;1.03;0.97;;;;;;;9.25;88.31;98802.81;5054366;28;20045;-69
2023/11/10 09:47:56;;;;;;;1.15;1.05;;;;;;;9.25;88.07;98782.44;5052255;28;20298;-69
2023/11/10 09:50:28;;;;;;;0.68;0.68;;;;;;;9.27;89.02;98785.81;5054224;28;20048;-70
2023/11/10 09:53:00;;;;;;;0.77;0.65;;;;;;;9.30;88.26;98780.69;5053890;28;20060;-69
2023/11/10 09:55:30;;;;;;;1.27;1.17;;;;;;;9.31;89.17;98767.09;5054484;28;20139;-70
2023/11/10 09:58:01;;;;;;;1.77;1.67;;;;;;;9.33;88.56;98769.63;5053005;28;20049;-68
2023/11/10 10:00:32;;;;;;;1.33;1.23;;;;;;;9.29;88.61;98763.72;5054300;28;20037;-70
2023/11/10 10:03:03;;;;;;;0.73;0.73;;;;;;;9.31;89.30;98756.91;5054161;28;20099;-70
2023/11/10 10:05:32;;;;;;;0.93;0.90;;;;;;;9.35;89.35;98753.47;5054046;28;20556;-70
2023/11/10 10:08:01;;;;;;;1.43;1.27;;;;;;;9.32;88.91;98748.41;5051431;28;20044;-70
2023/11/10 10:10:31;;;;;;;2.15;1.65;;;;;;;9.32;88.89;98738.22;5048199;28;20095;-71
2023/11/10 10:13:01;;;;;;;12.38;1.17;;;;;;;9.32;88.68;98722.97;5040622;28;20487;-70
2023/11/10 10:15:32;;;;;;;0.55;0.55;;;;;;;9.33;88.61;98728.91;5034585;28;20096;-69
2023/11/10 10:18:08;;;;;;;1.45;1.35;;;;;;;9.36;88.85;98724.59;5053813;28;20053;-71
2023/11/10 10:20:39;;;;;;;3.65;1.85;;;;;;;9.37;88.78;98721.22;5053705;28;20549;-70
2023/11/10 10:23:10;;;;;;;0.82;0.82;;;;;;;9.41;89.10;98717.75;5042393;28;20048;-71
2023/11/10 10:25:39;;;;;;;0.73;0.73;;;;;;;9.46;88.94;98715.16;5045581;28;20054;-72
2023/11/10 10:28:08;;;;;;;3.00;2.42;;;;;;;9.47;88.84;98710.91;5052403;28;20033;-70
2023/11/10 10:30:37;;;;;;;2.17;1.98;;;;;;;9.56;88.42;98695.50;5050885;28;20055;-69
2023/11/10 10:33:42;;;;;;;1.45;1.35;;;;;;;9.53;88.46;98691.28;5041161;28;20064;-71
2023/11/10 10:36:13;;;;;;;0.63;0.63;;;;;;;9.54;89.01;98685.34;5049678;28;20077;-70
2023/11/10 10:38:47;;;;;;;0.55;0.55;;;;;;;9.50;88.71;98662.50;5032951;28;20500;-70
2023/11/10 10:41:20;;;;;;;1.00;0.90;;;;;;;9.53;88.69;98670.06;5033158;28;20136;-71
2023/11/10 10:43:52;;;;;;;0.73;0.73;;;;;;;9.51;88.37;98671.78;5033865;28;20513;-70
2023/11/10 10:46:38;;;;;;;1.85;1.48;;;;;;;9.38;88.41;98643.13;5034627;28;20041;-69
2023/11/10 10:49:12;;;;;;;0.82;0.82;;;;;;;9.50;88.76;98654.84;5052477;28;20049;-71
2023/11/10 10:51:41;;;;;;;0.70;0.70;;;;;;;9.52;87.89;98658.22;5052405;28;20061;-70
2023/11/10 10:54:16;;;;;;;0.85;0.85;;;;;;;9.51;88.30;98648.88;5049066;28;20037;-71
2023/11/10 10:56:50;;;;;;;0.50;0.50;;;;;;;9.43;88.17;98626.91;5041718;28;20045;-69
2023/11/10 10:59:19;;;;;;;2.08;1.70;;;;;;;9.57;87.91;98630.97;5051078;28;20037;-70
2023/11/10 11:01:51;;;;;;;0.70;0.70;;;;;;;9.59;88.24;98621.59;5053262;28;20048;-70
2023/11/10 11:04:29;;;;;;;1.10;1.00;;;;;;;9.64;88.34;98617.28;5053568;28;20103;-71
2023/11/10 11:07:16;;;;;;;1.60;0.88;;;;;;;9.66;87.56;98615.56;5052260;28;20479;-71
2023/11/10 11:10:07;;;;;;;1.52;1.42;;;;;;;9.64;87.66;98613.03;5053187;28;20091;-70
2023/11/10 11:12:57;;;;;;;1.27;1.17;;;;;;;9.57;87.79;98605.50;5052289;28;20045;-71
2023/11/10 11:15:34;;;;;;;0.73;0.73;;;;;;;9.61;87.24;98607.13;5053364;28;20033;-68
2023/11/10 11:18:20;;;;;;;0.80;0.80;;;;;;;9.57;87.61;98585.13;5052527;28;20052;-70
2023/11/10 11:20:51;;;;;;;0.70;0.70;;;;;;;9.64;87.35;98597.75;5053029;28;22024;-70
2023/11/10 11:23:22;;;;;;;1.10;1.00;;;;;;;9.63;87.49;98592.66;5053396;28;20057;-68
2023/11/10 11:25:59;;;;;;;0.88;0.85;;;;;;;9.63;87.58;98590.97;5052053;28;20434;-70
2023/11/10 11:28:32;;;;;;;0.73;0.73;;;;;;;9.59;87.11;98583.41;5041784;28;20041;-70
2023/11/10 11:31:10;;;;;;;2.88;2.00;;;;;;;9.62;87.54;98575.72;5050194;28;20497;-70
2023/11/10 11:33:46;;;;;;;2.60;2.40;;;;;;;9.53;87.22;98552.91;5053025;28;20065;-70
2023/11/10 11:36:18;;;;;;;2.58;1.30;;;;;;;9.70;87.71;98558.59;5040552;28;20403;-67
2023/11/10 11:38:48;;;;;;;2.00;1.80;;;;;;;9.67;87.50;98561.22;5041692;28;20049;-70
2023/11/10 11:41:19;;;;;;;4.65;1.98;;;;;;;9.72;87.86;98564.50;5052717;28;20069;-71
2023/11/10 11:43:54;;;;;;;1.08;1.05;;;;;;;9.67;87.75;98551.03;5053032;28;20495;-71
2023/11/10 11:46:32;;;;;;;0.65;0.65;;;;;;;9.71;87.57;98547.56;5052706;28;20057;-69
2023/11/10 11:49:04;;;;;;;1.38;1.15;;;;;;;9.78;86.94;98554.25;5051956;28;20064;-70
2023/11/10 11:51:37;;;;;;;1.13;1.02;;;;;;;9.79;86.91;98555.94;5052861;28;20045;-70
2023/11/10 11:54:08;;;;;;;3.15;2.33;;;;;;;9.75;86.95;98539.00;5056179;28;20044;-70
2023/11/10 11:56:37;;;;;;;1.42;1.33;;;;;;;9.70;86.80;98546.72;5056816;28;20140;-70
2023/11/10 11:59:06;;;;;;;1.40;1.13;;;;;;;9.71;86.34;98547.56;5055078;28;20041;-70